sensor_id;sensor_type;location;lat;lon;timestamp;P1;durP1;ratioP1;P2;durP2;ratioP2
43962;SDS011;29622;45.534;9.242;2023-05-07T00:04:32;36.22;;;22.02;;
43962;SDS011;29622;45.534;9.242;2023-05-07T00:09:36;34.25;;;21.33;;
43962;SDS011;29622;45.534;9.242;2023-05-07T00:14:37;32.95;;;21.08;;
43962;SDS011;29622;45.534;9.242;2023-05-07T00:19:38;33.33;;;20.35;;
43962;SDS011;29622;45.534;9.242;2023-05-07T00:24:38;29.92;;;19.65;;
43962;SDS011;29622;45.534;9.242;2023-05-07T00:29:39;26.98;;;19.05;;
43962;SDS011;29622;45.534;9.242;2023-05-07T00:34:39;29.80;;;18.77;;
43962;SDS011;29622;45.534;9.242;2023-05-07T00:39:40;27.63;;;18.40;;
43962;SDS011;29622;45.534;9.242;2023-05-07T00:44:41;42.60;;;17.17;;
43962;SDS011;29622;45.534;9.242;2023-05-07T00:49:42;23.02;;;12.70;;
43962;SDS011;29622;45.534;9.242;2023-05-07T00:54:43;18.40;;;10.02;;
43962;SDS011;29622;45.534;9.242;2023-05-07T00:59:45;13.65;;;7.13;;
43962;SDS011;29622;45.534;9.242;2023-05-07T01:04:45;14.20;;;5.95;;
43962;SDS011;29622;45.534;9.242;2023-05-07T01:09:46;9.82;;;4.82;;
43962;SDS011;29622;45.534;9.242;2023-05-07T01:14:47;8.57;;;3.90;;
43962;SDS011;29622;45.534;9.242;2023-05-07T01:19:50;7.40;;;3.90;;
43962;SDS011;29622;45.534;9.242;2023-05-07T01:24:52;6.68;;;3.58;;
43962;SDS011;29622;45.534;9.242;2023-05-07T01:29:54;8.70;;;3.38;;
43962;SDS011;29622;45.534;9.242;2023-05-07T01:34:55;5.32;;;3.05;;
43962;SDS011;29622;45.534;9.242;2023-05-07T01:39:58;4.28;;;2.42;;
43962;SDS011;29622;45.534;9.242;2023-05-07T01:45:00;6.93;;;2.85;;
43962;SDS011;29622;45.534;9.242;2023-05-07T01:50:03;7.68;;;2.55;;
43962;SDS011;29622;45.534;9.242;2023-05-07T01:55:08;7.50;;;2.97;;
43962;SDS011;29622;45.534;9.242;2023-05-07T02:00:09;8.00;;;2.08;;
43962;SDS011;29622;45.534;9.242;2023-05-07T02:05:16;5.03;;;2.78;;
43962;SDS011;29622;45.534;9.242;2023-05-07T02:10:18;5.47;;;1.73;;
43962;SDS011;29622;45.534;9.242;2023-05-07T02:15:19;12.48;;;1.50;;
43962;SDS011;29622;45.534;9.242;2023-05-07T02:20:20;26.13;;;3.13;;
43962;SDS011;29622;45.534;9.242;2023-05-07T02:25:21;6.70;;;1.58;;
43962;SDS011;29622;45.534;9.242;2023-05-07T02:30:21;6.65;;;1.35;;
43962;SDS011;29622;45.534;9.242;2023-05-07T02:35:25;8.27;;;1.45;;
43962;SDS011;29622;45.534;9.242;2023-05-07T02:40:26;4.93;;;1.50;;
43962;SDS011;29622;45.534;9.242;2023-05-07T02:45:27;6.13;;;1.58;;
43962;SDS011;29622;45.534;9.242;2023-05-07T02:50:28;8.73;;;1.42;;
43962;SDS011;29622;45.534;9.242;2023-05-07T02:55:30;14.05;;;1.83;;
43962;SDS011;29622;45.534;9.242;2023-05-07T03:00:31;3.80;;;1.73;;
43962;SDS011;29622;45.534;9.242;2023-05-07T03:05:43;3.75;;;2.13;;
43962;SDS011;29622;45.534;9.242;2023-05-07T03:10:44;5.70;;;1.40;;
43962;SDS011;29622;45.534;9.242;2023-05-07T03:15:45;4.95;;;1.73;;
43962;SDS011;29622;45.534;9.242;2023-05-07T03:20:46;4.70;;;1.60;;
43962;SDS011;29622;45.534;9.242;2023-05-07T03:25:49;2.67;;;1.30;;
43962;SDS011;29622;45.534;9.242;2023-05-07T03:30:49;3.95;;;1.50;;
43962;SDS011;29622;45.534;9.242;2023-05-07T03:35:50;4.90;;;1.40;;
43962;SDS011;29622;45.534;9.242;2023-05-07T03:40:56;3.17;;;1.35;;
43962;SDS011;29622;45.534;9.242;2023-05-07T03:45:57;6.07;;;1.63;;
43962;SDS011;29622;45.534;9.242;2023-05-07T03:51:00;29.00;;;3.80;;
43962;SDS011;29622;45.534;9.242;2023-05-07T03:56:05;4.30;;;1.30;;
43962;SDS011;29622;45.534;9.242;2023-05-07T04:01:10;4.43;;;1.30;;
43962;SDS011;29622;45.534;9.242;2023-05-07T04:06:11;3.10;;;1.23;;
43962;SDS011;29622;45.534;9.242;2023-05-07T04:11:14;9.32;;;2.10;;
43962;SDS011;29622;45.534;9.242;2023-05-07T04:16:15;6.32;;;2.20;;
43962;SDS011;29622;45.534;9.242;2023-05-07T04:21:17;5.72;;;1.73;;
43962;SDS011;29622;45.534;9.242;2023-05-07T04:26:19;15.35;;;2.00;;
43962;SDS011;29622;45.534;9.242;2023-05-07T04:31:21;24.50;;;2.72;;
43962;SDS011;29622;45.534;9.242;2023-05-07T04:36:25;8.48;;;1.70;;
43962;SDS011;29622;45.534;9.242;2023-05-07T04:41:32;19.50;;;2.30;;
43962;SDS011;29622;45.534;9.242;2023-05-07T04:46:33;15.20;;;2.25;;
43962;SDS011;29622;45.534;9.242;2023-05-07T04:51:34;10.95;;;1.73;;
43962;SDS011;29622;45.534;9.242;2023-05-07T04:56:35;13.80;;;1.95;;
43962;SDS011;29622;45.534;9.242;2023-05-07T05:01:36;15.80;;;2.40;;
43962;SDS011;29622;45.534;9.242;2023-05-07T05:06:37;11.70;;;2.20;;
43962;SDS011;29622;45.534;9.242;2023-05-07T05:11:39;8.35;;;2.08;;
43962;SDS011;29622;45.534;9.242;2023-05-07T05:16:40;2.55;;;1.13;;
43962;SDS011;29622;45.534;9.242;2023-05-07T05:21:40;7.00;;;1.58;;
43962;SDS011;29622;45.534;9.242;2023-05-07T05:26:43;10.75;;;1.55;;
43962;SDS011;29622;45.534;9.242;2023-05-07T05:31:44;5.20;;;1.80;;
43962;SDS011;29622;45.534;9.242;2023-05-07T05:36:45;7.40;;;1.65;;
43962;SDS011;29622;45.534;9.242;2023-05-07T05:41:47;9.20;;;1.67;;
43962;SDS011;29622;45.534;9.242;2023-05-07T05:46:48;4.70;;;1.60;;
43962;SDS011;29622;45.534;9.242;2023-05-07T05:51:50;61.15;;;4.30;;
43962;SDS011;29622;45.534;9.242;2023-05-07T05:56:50;9.93;;;2.10;;
43962;SDS011;29622;45.534;9.242;2023-05-07T06:01:52;4.80;;;2.03;;
43962;SDS011;29622;45.534;9.242;2023-05-07T06:06:53;8.15;;;1.60;;
43962;SDS011;29622;45.534;9.242;2023-05-07T06:11:54;8.05;;;2.00;;
43962;SDS011;29622;45.534;9.242;2023-05-07T06:16:56;4.90;;;1.42;;
43962;SDS011;29622;45.534;9.242;2023-05-07T06:21:57;6.03;;;1.48;;
43962;SDS011;29622;45.534;9.242;2023-05-07T06:26:59;19.45;;;3.92;;
43962;SDS011;29622;45.534;9.242;2023-05-07T06:32:10;9.05;;;1.85;;
43962;SDS011;29622;45.534;9.242;2023-05-07T06:37:14;4.32;;;1.95;;
43962;SDS011;29622;45.534;9.242;2023-05-07T06:42:26;3.80;;;1.60;;
43962;SDS011;29622;45.534;9.242;2023-05-07T06:47:32;14.32;;;2.45;;
43962;SDS011;29622;45.534;9.242;2023-05-07T06:52:32;14.30;;;3.63;;
43962;SDS011;29622;45.534;9.242;2023-05-07T06:57:33;11.95;;;2.22;;
43962;SDS011;29622;45.534;9.242;2023-05-07T07:02:34;8.43;;;2.05;;
43962;SDS011;29622;45.534;9.242;2023-05-07T07:07:35;8.40;;;2.45;;
43962;SDS011;29622;45.534;9.242;2023-05-07T07:12:35;9.07;;;2.03;;
43962;SDS011;29622;45.534;9.242;2023-05-07T07:17:37;17.40;;;2.92;;
43962;SDS011;29622;45.534;9.242;2023-05-07T07:22:37;7.40;;;2.55;;
43962;SDS011;29622;45.534;9.242;2023-05-07T07:27:38;20.08;;;3.63;;
43962;SDS011;29622;45.534;9.242;2023-05-07T07:32:40;15.88;;;4.57;;
43962;SDS011;29622;45.534;9.242;2023-05-07T07:37:41;14.63;;;2.88;;
43962;SDS011;29622;45.534;9.242;2023-05-07T07:42:42;19.75;;;3.30;;
43962;SDS011;29622;45.534;9.242;2023-05-07T07:47:43;7.18;;;1.92;;
43962;SDS011;29622;45.534;9.242;2023-05-07T07:52:43;6.78;;;2.40;;
43962;SDS011;29622;45.534;9.242;2023-05-07T07:57:46;16.13;;;2.63;;
43962;SDS011;29622;45.534;9.242;2023-05-07T08:02:47;10.23;;;2.20;;
43962;SDS011;29622;45.534;9.242;2023-05-07T08:07:55;4.07;;;2.47;;
43962;SDS011;29622;45.534;9.242;2023-05-07T08:13:00;13.90;;;3.15;;
43962;SDS011;29622;45.534;9.242;2023-05-07T08:18:04;19.48;;;4.10;;
43962;SDS011;29622;45.534;9.242;2023-05-07T08:23:05;15.80;;;4.07;;
43962;SDS011;29622;45.534;9.242;2023-05-07T08:28:07;7.40;;;3.00;;
43962;SDS011;29622;45.534;9.242;2023-05-07T08:33:09;6.38;;;1.77;;
43962;SDS011;29622;45.534;9.242;2023-05-07T08:38:11;8.43;;;2.00;;
43962;SDS011;29622;45.534;9.242;2023-05-07T08:43:13;8.95;;;2.63;;
43962;SDS011;29622;45.534;9.242;2023-05-07T08:48:15;3.90;;;1.83;;
43962;SDS011;29622;45.534;9.242;2023-05-07T08:53:21;4.18;;;1.55;;
43962;SDS011;29622;45.534;9.242;2023-05-07T08:58:23;6.75;;;1.58;;
43962;SDS011;29622;45.534;9.242;2023-05-07T09:03:24;6.07;;;1.73;;
43962;SDS011;29622;45.534;9.242;2023-05-07T09:08:27;13.25;;;3.03;;
43962;SDS011;29622;45.534;9.242;2023-05-07T09:13:32;5.93;;;2.30;;
43962;SDS011;29622;45.534;9.242;2023-05-07T09:18:35;5.90;;;1.73;;
43962;SDS011;29622;45.534;9.242;2023-05-07T09:23:45;13.18;;;2.90;;
43962;SDS011;29622;45.534;9.242;2023-05-07T09:28:47;6.55;;;3.03;;
43962;SDS011;29622;45.534;9.242;2023-05-07T09:33:48;5.47;;;3.13;;
43962;SDS011;29622;45.534;9.242;2023-05-07T09:38:49;6.53;;;2.97;;
43962;SDS011;29622;45.534;9.242;2023-05-07T09:43:54;4.60;;;2.08;;
43962;SDS011;29622;45.534;9.242;2023-05-07T09:48:59;4.63;;;2.38;;
43962;SDS011;29622;45.534;9.242;2023-05-07T09:54:02;3.45;;;2.17;;
43962;SDS011;29622;45.534;9.242;2023-05-07T09:59:07;6.03;;;1.95;;
43962;SDS011;29622;45.534;9.242;2023-05-07T10:04:10;6.20;;;2.45;;
43962;SDS011;29622;45.534;9.242;2023-05-07T10:09:12;4.70;;;2.10;;
43962;SDS011;29622;45.534;9.242;2023-05-07T10:14:15;7.35;;;2.65;;
43962;SDS011;29622;45.534;9.242;2023-05-07T10:19:18;3.83;;;2.33;;
43962;SDS011;29622;45.534;9.242;2023-05-07T10:24:25;5.93;;;2.67;;
43962;SDS011;29622;45.534;9.242;2023-05-07T10:29:33;9.40;;;3.00;;
43962;SDS011;29622;45.534;9.242;2023-05-07T10:34:43;5.82;;;2.80;;
43962;SDS011;29622;45.534;9.242;2023-05-07T10:39:46;4.85;;;2.80;;
43962;SDS011;29622;45.534;9.242;2023-05-07T10:44:47;7.75;;;3.35;;
43962;SDS011;29622;45.534;9.242;2023-05-07T11:05:33;12.90;;;2.92;;
43962;SDS011;29622;45.534;9.242;2023-05-07T11:10:47;13.60;;;3.45;;
43962;SDS011;29622;45.534;9.242;2023-05-07T11:15:55;5.65;;;3.40;;
43962;SDS011;29622;45.534;9.242;2023-05-07T11:21:04;4.95;;;3.40;;
43962;SDS011;29622;45.534;9.242;2023-05-07T11:26:14;11.60;;;3.03;;
43962;SDS011;29622;45.534;9.242;2023-05-07T11:31:20;5.00;;;3.30;;
43962;SDS011;29622;45.534;9.242;2023-05-07T11:36:24;6.55;;;3.42;;
43962;SDS011;29622;45.534;9.242;2023-05-07T11:41:36;9.35;;;3.63;;
43962;SDS011;29622;45.534;9.242;2023-05-07T11:46:37;7.03;;;3.92;;
43962;SDS011;29622;45.534;9.242;2023-05-07T11:51:42;5.28;;;3.10;;
43962;SDS011;29622;45.534;9.242;2023-05-07T11:56:45;13.82;;;4.68;;
43962;SDS011;29622;45.534;9.242;2023-05-07T12:01:48;5.68;;;3.72;;
43962;SDS011;29622;45.534;9.242;2023-05-07T12:06:49;6.28;;;3.30;;
43962;SDS011;29622;45.534;9.242;2023-05-07T12:11:55;6.03;;;3.17;;
43962;SDS011;29622;45.534;9.242;2023-05-07T12:16:56;7.75;;;3.40;;
43962;SDS011;29622;45.534;9.242;2023-05-07T12:21:58;5.15;;;2.95;;
43962;SDS011;29622;45.534;9.242;2023-05-07T12:26:59;5.50;;;3.15;;
43962;SDS011;29622;45.534;9.242;2023-05-07T12:32:00;5.97;;;3.13;;
43962;SDS011;29622;45.534;9.242;2023-05-07T12:37:02;5.78;;;2.90;;
43962;SDS011;29622;45.534;9.242;2023-05-07T12:42:03;7.65;;;3.25;;
43962;SDS011;29622;45.534;9.242;2023-05-07T12:47:05;5.82;;;2.67;;
43962;SDS011;29622;45.534;9.242;2023-05-07T12:52:06;4.43;;;2.42;;
43962;SDS011;29622;45.534;9.242;2023-05-07T12:57:08;4.60;;;2.47;;
43962;SDS011;29622;45.534;9.242;2023-05-07T13:02:21;5.53;;;2.50;;
43962;SDS011;29622;45.534;9.242;2023-05-07T13:07:52;2.97;;;2.10;;
43962;SDS011;29622;45.534;9.242;2023-05-07T13:12:56;4.20;;;1.80;;
43962;SDS011;29622;45.534;9.242;2023-05-07T13:17:57;4.15;;;2.28;;
43962;SDS011;29622;45.534;9.242;2023-05-07T13:22:58;4.72;;;1.92;;
43962;SDS011;29622;45.534;9.242;2023-05-07T13:28:02;5.15;;;1.60;;
43962;SDS011;29622;45.534;9.242;2023-05-07T13:33:03;4.97;;;1.48;;
43962;SDS011;29622;45.534;9.242;2023-05-07T13:38:04;4.00;;;1.90;;
43962;SDS011;29622;45.534;9.242;2023-05-07T13:43:05;4.32;;;1.85;;
43962;SDS011;29622;45.534;9.242;2023-05-07T13:48:06;5.53;;;2.17;;
43962;SDS011;29622;45.534;9.242;2023-05-07T13:53:07;8.95;;;1.98;;
43962;SDS011;29622;45.534;9.242;2023-05-07T13:58:08;4.45;;;2.05;;
43962;SDS011;29622;45.534;9.242;2023-05-07T14:03:09;10.38;;;2.28;;
43962;SDS011;29622;45.534;9.242;2023-05-07T14:08:11;3.00;;;1.75;;
43962;SDS011;29622;45.534;9.242;2023-05-07T14:13:13;3.00;;;2.08;;
43962;SDS011;29622;45.534;9.242;2023-05-07T14:18:14;3.80;;;1.88;;
43962;SDS011;29622;45.534;9.242;2023-05-07T14:23:15;2.92;;;1.70;;
43962;SDS011;29622;45.534;9.242;2023-05-07T14:28:18;7.55;;;1.90;;
43962;SDS011;29622;45.534;9.242;2023-05-07T14:33:18;2.90;;;1.42;;
43962;SDS011;29622;45.534;9.242;2023-05-07T14:38:19;2.42;;;1.63;;
43962;SDS011;29622;45.534;9.242;2023-05-07T14:43:20;2.90;;;1.50;;
43962;SDS011;29622;45.534;9.242;2023-05-07T14:48:23;3.20;;;1.80;;
43962;SDS011;29622;45.534;9.242;2023-05-07T14:53:24;3.38;;;1.58;;
43962;SDS011;29622;45.534;9.242;2023-05-07T14:58:25;5.95;;;3.20;;
43962;SDS011;29622;45.534;9.242;2023-05-07T15:03:25;3.60;;;1.80;;
43962;SDS011;29622;45.534;9.242;2023-05-07T15:08:27;2.63;;;1.55;;
43962;SDS011;29622;45.534;9.242;2023-05-07T15:13:28;2.78;;;1.90;;
43962;SDS011;29622;45.534;9.242;2023-05-07T15:18:28;3.10;;;1.90;;
43962;SDS011;29622;45.534;9.242;2023-05-07T15:23:29;2.70;;;1.60;;
43962;SDS011;29622;45.534;9.242;2023-05-07T15:28:30;2.90;;;1.60;;
43962;SDS011;29622;45.534;9.242;2023-05-07T15:33:33;6.72;;;2.10;;
43962;SDS011;29622;45.534;9.242;2023-05-07T15:38:34;5.43;;;1.90;;
43962;SDS011;29622;45.534;9.242;2023-05-07T15:43:38;6.28;;;2.05;;
43962;SDS011;29622;45.534;9.242;2023-05-07T15:48:45;4.82;;;1.58;;
43962;SDS011;29622;45.534;9.242;2023-05-07T15:53:46;4.53;;;1.70;;
43962;SDS011;29622;45.534;9.242;2023-05-07T15:58:47;3.88;;;1.55;;
43962;SDS011;29622;45.534;9.242;2023-05-07T16:03:48;3.33;;;1.67;;
43962;SDS011;29622;45.534;9.242;2023-05-07T16:08:49;4.93;;;1.92;;
43962;SDS011;29622;45.534;9.242;2023-05-07T16:13:50;2.88;;;1.88;;
43962;SDS011;29622;45.534;9.242;2023-05-07T16:18:50;13.82;;;2.70;;
43962;SDS011;29622;45.534;9.242;2023-05-07T16:23:54;4.97;;;1.60;;
43962;SDS011;29622;45.534;9.242;2023-05-07T16:28:56;4.90;;;1.65;;
43962;SDS011;29622;45.534;9.242;2023-05-07T16:33:56;3.38;;;1.40;;
43962;SDS011;29622;45.534;9.242;2023-05-07T16:38:57;4.32;;;1.65;;
43962;SDS011;29622;45.534;9.242;2023-05-07T16:43:58;9.20;;;1.83;;
43962;SDS011;29622;45.534;9.242;2023-05-07T16:48:59;7.07;;;1.92;;
43962;SDS011;29622;45.534;9.242;2023-05-07T16:53:59;3.28;;;1.55;;
43962;SDS011;29622;45.534;9.242;2023-05-07T16:59:00;4.05;;;1.63;;
43962;SDS011;29622;45.534;9.242;2023-05-07T17:04:01;3.95;;;1.65;;
43962;SDS011;29622;45.534;9.242;2023-05-07T17:09:01;11.43;;;1.58;;
43962;SDS011;29622;45.534;9.242;2023-05-07T17:14:02;4.80;;;2.72;;
43962;SDS011;29622;45.534;9.242;2023-05-07T17:19:03;7.88;;;2.00;;
43962;SDS011;29622;45.534;9.242;2023-05-07T17:24:03;4.53;;;1.90;;
43962;SDS011;29622;45.534;9.242;2023-05-07T17:29:05;5.22;;;2.40;;
43962;SDS011;29622;45.534;9.242;2023-05-07T17:34:06;6.60;;;3.15;;
43962;SDS011;29622;45.534;9.242;2023-05-07T17:39:10;7.68;;;2.33;;
43962;SDS011;29622;45.534;9.242;2023-05-07T17:44:11;7.22;;;3.10;;
43962;SDS011;29622;45.534;9.242;2023-05-07T17:49:13;8.90;;;2.05;;
43962;SDS011;29622;45.534;9.242;2023-05-07T17:54:16;5.45;;;2.30;;
43962;SDS011;29622;45.534;9.242;2023-05-07T17:59:17;8.95;;;3.33;;
43962;SDS011;29622;45.534;9.242;2023-05-07T18:04:18;3.97;;;1.92;;
43962;SDS011;29622;45.534;9.242;2023-05-07T18:09:20;7.13;;;2.40;;
43962;SDS011;29622;45.534;9.242;2023-05-07T18:14:21;7.43;;;2.35;;
43962;SDS011;29622;45.534;9.242;2023-05-07T18:19:24;5.47;;;2.40;;
43962;SDS011;29622;45.534;9.242;2023-05-07T18:24:26;16.02;;;3.13;;
43962;SDS011;29622;45.534;9.242;2023-05-07T18:29:26;6.90;;;2.80;;
43962;SDS011;29622;45.534;9.242;2023-05-07T18:34:27;34.47;;;6.35;;
43962;SDS011;29622;45.534;9.242;2023-05-07T18:39:28;6.50;;;3.03;;
43962;SDS011;29622;45.534;9.242;2023-05-07T18:44:30;8.23;;;3.22;;
43962;SDS011;29622;45.534;9.242;2023-05-07T18:49:34;16.50;;;4.00;;
43962;SDS011;29622;45.534;9.242;2023-05-07T18:54:35;7.15;;;2.85;;
43962;SDS011;29622;45.534;9.242;2023-05-07T18:59:36;5.18;;;1.85;;
43962;SDS011;29622;45.534;9.242;2023-05-07T19:04:37;10.50;;;2.05;;
43962;SDS011;29622;45.534;9.242;2023-05-07T19:09:37;7.70;;;1.48;;
43962;SDS011;29622;45.534;9.242;2023-05-07T19:14:38;4.53;;;1.38;;
43962;SDS011;29622;45.534;9.242;2023-05-07T19:19:41;4.43;;;1.63;;
43962;SDS011;29622;45.534;9.242;2023-05-07T19:24:56;3.50;;;1.30;;
43962;SDS011;29622;45.534;9.242;2023-05-07T19:29:58;5.07;;;1.20;;
43962;SDS011;29622;45.534;9.242;2023-05-07T19:35:03;1.95;;;1.10;;
43962;SDS011;29622;45.534;9.242;2023-05-07T19:40:04;9.75;;;2.08;;
43962;SDS011;29622;45.534;9.242;2023-05-07T19:45:06;3.25;;;1.50;;
43962;SDS011;29622;45.534;9.242;2023-05-07T19:50:07;4.88;;;1.67;;
43962;SDS011;29622;45.534;9.242;2023-05-07T19:55:08;7.43;;;1.60;;
43962;SDS011;29622;45.534;9.242;2023-05-07T20:00:09;12.23;;;2.05;;
43962;SDS011;29622;45.534;9.242;2023-05-07T20:05:13;8.40;;;2.13;;
43962;SDS011;29622;45.534;9.242;2023-05-07T20:10:14;6.50;;;1.73;;
43962;SDS011;29622;45.534;9.242;2023-05-07T20:15:15;7.30;;;2.13;;
43962;SDS011;29622;45.534;9.242;2023-05-07T20:20:15;6.78;;;2.28;;
43962;SDS011;29622;45.534;9.242;2023-05-07T20:25:16;5.72;;;2.25;;
43962;SDS011;29622;45.534;9.242;2023-05-07T20:30:17;10.45;;;2.85;;
43962;SDS011;29622;45.534;9.242;2023-05-07T20:35:19;5.15;;;2.28;;
43962;SDS011;29622;45.534;9.242;2023-05-07T20:40:20;6.05;;;2.40;;
43962;SDS011;29622;45.534;9.242;2023-05-07T20:45:20;8.90;;;3.80;;
43962;SDS011;29622;45.534;9.242;2023-05-07T20:50:22;9.20;;;2.97;;
43962;SDS011;29622;45.534;9.242;2023-05-07T20:55:23;7.25;;;3.05;;
43962;SDS011;29622;45.534;9.242;2023-05-07T21:00:24;7.13;;;2.75;;
43962;SDS011;29622;45.534;9.242;2023-05-07T21:05:25;14.15;;;3.65;;
43962;SDS011;29622;45.534;9.242;2023-05-07T21:10:26;5.57;;;2.50;;
43962;SDS011;29622;45.534;9.242;2023-05-07T21:15:27;8.30;;;2.63;;
43962;SDS011;29622;45.534;9.242;2023-05-07T21:20:28;12.90;;;2.50;;
43962;SDS011;29622;45.534;9.242;2023-05-07T21:25:29;8.73;;;3.17;;
43962;SDS011;29622;45.534;9.242;2023-05-07T21:30:29;4.53;;;2.50;;
43962;SDS011;29622;45.534;9.242;2023-05-07T21:35:30;4.93;;;2.40;;
43962;SDS011;29622;45.534;9.242;2023-05-07T21:40:31;6.07;;;2.65;;
43962;SDS011;29622;45.534;9.242;2023-05-07T21:45:31;7.30;;;2.67;;
43962;SDS011;29622;45.534;9.242;2023-05-07T21:50:32;7.85;;;2.90;;
43962;SDS011;29622;45.534;9.242;2023-05-07T21:55:33;7.97;;;2.40;;
43962;SDS011;29622;45.534;9.242;2023-05-07T22:00:33;3.83;;;1.98;;
43962;SDS011;29622;45.534;9.242;2023-05-07T22:05:34;3.22;;;1.95;;
43962;SDS011;29622;45.534;9.242;2023-05-07T22:10:35;6.95;;;2.42;;
43962;SDS011;29622;45.534;9.242;2023-05-07T22:15:36;5.22;;;1.92;;
43962;SDS011;29622;45.534;9.242;2023-05-07T22:20:37;6.28;;;2.47;;
43962;SDS011;29622;45.534;9.242;2023-05-07T22:25:37;4.97;;;2.20;;
43962;SDS011;29622;45.534;9.242;2023-05-07T22:30:38;4.63;;;2.17;;
43962;SDS011;29622;45.534;9.242;2023-05-07T22:35:39;4.95;;;2.42;;
43962;SDS011;29622;45.534;9.242;2023-05-07T22:40:39;5.15;;;2.25;;
43962;SDS011;29622;45.534;9.242;2023-05-07T22:45:40;5.28;;;2.47;;
43962;SDS011;29622;45.534;9.242;2023-05-07T22:50:41;4.80;;;2.03;;
43962;SDS011;29622;45.534;9.242;2023-05-07T22:55:41;7.90;;;2.20;;
43962;SDS011;29622;45.534;9.242;2023-05-07T23:00:42;3.58;;;1.65;;
43962;SDS011;29622;45.534;9.242;2023-05-07T23:05:43;3.08;;;1.75;;
43962;SDS011;29622;45.534;9.242;2023-05-07T23:10:44;5.63;;;2.58;;
43962;SDS011;29622;45.534;9.242;2023-05-07T23:15:44;6.28;;;2.05;;
43962;SDS011;29622;45.534;9.242;2023-05-07T23:20:45;14.38;;;3.28;;
43962;SDS011;29622;45.534;9.242;2023-05-07T23:25:45;4.43;;;2.00;;
43962;SDS011;29622;45.534;9.242;2023-05-07T23:30:46;7.00;;;1.98;;
43962;SDS011;29622;45.534;9.242;2023-05-07T23:35:47;4.07;;;2.15;;
43962;SDS011;29622;45.534;9.242;2023-05-07T23:40:47;6.80;;;2.15;;
43962;SDS011;29622;45.534;9.242;2023-05-07T23:45:48;11.15;;;2.38;;
43962;SDS011;29622;45.534;9.242;2023-05-07T23:50:49;5.65;;;2.38;;
43962;SDS011;29622;45.534;9.242;2023-05-07T23:55:49;10.32;;;2.65;;
